sensor_id;sensor_type;location;lat;lon;timestamp;pressure;altitude;pressure_sealevel;temperature;humidity
23016;BME280;11674;52.428;13.584;2022-08-19T00:02:21;100680.38;;;23.67;83.88
23016;BME280;11674;52.428;13.584;2022-08-19T00:04:53;100679.59;;;23.70;84.18
23016;BME280;11674;52.428;13.584;2022-08-19T00:07:25;100673.16;;;23.70;84.00
23016;BME280;11674;52.428;13.584;2022-08-19T00:09:57;100661.75;;;23.66;83.46
23016;BME280;11674;52.428;13.584;2022-08-19T00:12:29;100660.88;;;23.62;83.73
23016;BME280;11674;52.428;13.584;2022-08-19T00:15:01;100660.44;;;23.60;84.02
23016;BME280;11674;52.428;13.584;2022-08-19T00:17:33;100655.59;;;23.61;84.16
23016;BME280;11674;52.428;13.584;2022-08-19T00:20:06;100653.94;;;23.60;84.05
23016;BME280;11674;52.428;13.584;2022-08-19T00:22:38;100653.91;;;23.56;83.86
23016;BME280;11674;52.428;13.584;2022-08-19T00:25:11;100646.94;;;23.50;83.71
23016;BME280;11674;52.428;13.584;2022-08-19T00:27:43;100646.38;;;23.41;83.65
23016;BME280;11674;52.428;13.584;2022-08-19T00:30:16;100627.94;;;23.28;83.99
23016;BME280;11674;52.428;13.584;2022-08-19T00:32:47;100638.63;;;23.16;84.05
23016;BME280;11674;52.428;13.584;2022-08-19T00:35:19;100637.63;;;23.05;84.62
23016;BME280;11674;52.428;13.584;2022-08-19T00:37:51;100630.47;;;22.92;84.48
23016;BME280;11674;52.428;13.584;2022-08-19T00:40:23;100633.13;;;22.81;85.00
23016;BME280;11674;52.428;13.584;2022-08-19T00:42:55;100628.91;;;22.72;84.63
23016;BME280;11674;52.428;13.584;2022-08-19T00:45:28;100631.94;;;22.63;84.95
23016;BME280;11674;52.428;13.584;2022-08-19T00:48:00;100633.84;;;22.56;85.28
23016;BME280;11674;52.428;13.584;2022-08-19T00:50:33;100658.41;;;22.52;85.40
23016;BME280;11674;52.428;13.584;2022-08-19T00:53:06;100663.22;;;22.51;86.04
23016;BME280;11674;52.428;13.584;2022-08-19T00:55:38;100665.63;;;22.49;86.07
23016;BME280;11674;52.428;13.584;2022-08-19T00:58:16;100667.19;;;22.47;86.17
23016;BME280;11674;52.428;13.584;2022-08-19T01:00:48;100659.44;;;22.44;86.16
23016;BME280;11674;52.428;13.584;2022-08-19T01:03:21;100668.66;;;22.41;86.50
23016;BME280;11674;52.428;13.584;2022-08-19T01:05:54;100685.16;;;22.39;86.37
23016;BME280;11674;52.428;13.584;2022-08-19T01:08:26;100688.06;;;22.42;86.85
23016;BME280;11674;52.428;13.584;2022-08-19T01:10:59;100697.66;;;22.38;86.56
23016;BME280;11674;52.428;13.584;2022-08-19T01:13:36;100685.44;;;22.34;86.33
23016;BME280;11674;52.428;13.584;2022-08-19T01:16:10;100674.66;;;22.20;86.29
23016;BME280;11674;52.428;13.584;2022-08-19T01:18:42;100675.22;;;22.10;86.66
23016;BME280;11674;52.428;13.584;2022-08-19T01:21:26;100671.88;;;22.05;86.76
23016;BME280;11674;52.428;13.584;2022-08-19T01:23:59;100659.25;;;21.99;86.92
23016;BME280;11674;52.428;13.584;2022-08-19T01:26:38;100647.38;;;21.93;87.04
23016;BME280;11674;52.428;13.584;2022-08-19T01:29:10;100639.19;;;21.88;87.25
23016;BME280;11674;52.428;13.584;2022-08-19T01:31:36;100614.06;;;21.83;87.21
23016;BME280;11674;52.428;13.584;2022-08-19T01:34:08;100608.69;;;21.78;87.15
23016;BME280;11674;52.428;13.584;2022-08-19T01:36:43;100600.91;;;21.72;87.01
23016;BME280;11674;52.428;13.584;2022-08-19T01:39:18;100594.25;;;21.64;87.30
23016;BME280;11674;52.428;13.584;2022-08-19T01:41:50;100596.53;;;21.59;87.48
23016;BME280;11674;52.428;13.584;2022-08-19T01:44:22;100590.00;;;21.55;87.24
23016;BME280;11674;52.428;13.584;2022-08-19T01:46:54;100580.63;;;21.51;87.10
23016;BME280;11674;52.428;13.584;2022-08-19T01:49:26;100585.00;;;21.48;87.11
23016;BME280;11674;52.428;13.584;2022-08-19T01:51:52;100579.78;;;21.50;87.37
23016;BME280;11674;52.428;13.584;2022-08-19T01:54:24;100571.38;;;21.54;87.49
23016;BME280;11674;52.428;13.584;2022-08-19T01:57:01;100563.81;;;21.58;87.54
23016;BME280;11674;52.428;13.584;2022-08-19T01:59:34;100564.72;;;21.62;87.08
23016;BME280;11674;52.428;13.584;2022-08-19T02:02:06;100562.09;;;21.69;87.33
23016;BME280;11674;52.428;13.584;2022-08-19T02:04:38;100586.41;;;21.73;86.97
23016;BME280;11674;52.428;13.584;2022-08-19T02:07:10;100583.28;;;21.78;86.99
23016;BME280;11674;52.428;13.584;2022-08-19T02:09:42;100572.94;;;21.86;87.18
23016;BME280;11674;52.428;13.584;2022-08-19T02:12:14;100586.72;;;21.87;86.74
23016;BME280;11674;52.428;13.584;2022-08-19T02:14:47;100594.00;;;21.88;86.67
23016;BME280;11674;52.428;13.584;2022-08-19T02:17:19;100579.88;;;21.88;86.41
23016;BME280;11674;52.428;13.584;2022-08-19T02:19:51;100576.25;;;21.88;86.25
23016;BME280;11674;52.428;13.584;2022-08-19T02:22:24;100584.66;;;21.84;86.56
23016;BME280;11674;52.428;13.584;2022-08-19T02:24:56;100573.25;;;21.81;86.63
23016;BME280;11674;52.428;13.584;2022-08-19T02:27:28;100566.31;;;21.78;86.54
23016;BME280;11674;52.428;13.584;2022-08-19T02:30:01;100574.38;;;21.76;86.91
23016;BME280;11674;52.428;13.584;2022-08-19T02:32:32;100568.66;;;21.73;86.75
23016;BME280;11674;52.428;13.584;2022-08-19T02:35:05;100549.59;;;21.70;87.02
23016;BME280;11674;52.428;13.584;2022-08-19T02:37:36;100557.16;;;21.66;87.36
23016;BME280;11674;52.428;13.584;2022-08-19T02:40:09;100568.00;;;21.64;87.57
23016;BME280;11674;52.428;13.584;2022-08-19T02:42:40;100572.84;;;21.63;87.60
23016;BME280;11674;52.428;13.584;2022-08-19T02:45:13;100574.84;;;21.63;87.76
23016;BME280;11674;52.428;13.584;2022-08-19T02:47:45;100590.59;;;21.64;87.55
23016;BME280;11674;52.428;13.584;2022-08-19T02:50:17;100580.13;;;21.64;87.76
23016;BME280;11674;52.428;13.584;2022-08-19T02:52:49;100567.63;;;21.65;87.55
23016;BME280;11674;52.428;13.584;2022-08-19T02:55:21;100563.63;;;21.66;87.74
23016;BME280;11674;52.428;13.584;2022-08-19T02:57:53;100570.91;;;21.67;87.61
23016;BME280;11674;52.428;13.584;2022-08-19T03:00:26;100574.22;;;21.69;87.76
23016;BME280;11674;52.428;13.584;2022-08-19T03:02:58;100575.47;;;21.72;87.81
23016;BME280;11674;52.428;13.584;2022-08-19T03:05:30;100572.66;;;21.72;87.35
23016;BME280;11674;52.428;13.584;2022-08-19T03:08:02;100582.41;;;21.74;87.30
23016;BME280;11674;52.428;13.584;2022-08-19T03:10:40;100582.41;;;21.74;87.49
23016;BME280;11674;52.428;13.584;2022-08-19T03:13:17;100573.16;;;21.77;87.27
23016;BME280;11674;52.428;13.584;2022-08-19T03:15:49;100571.53;;;21.76;87.12
23016;BME280;11674;52.428;13.584;2022-08-19T03:18:21;100565.88;;;21.76;87.16
23016;BME280;11674;52.428;13.584;2022-08-19T03:20:54;100548.94;;;21.76;87.11
23016;BME280;11674;52.428;13.584;2022-08-19T03:23:26;100558.69;;;21.79;87.18
23016;BME280;11674;52.428;13.584;2022-08-19T03:25:59;100549.38;;;21.78;87.21
23016;BME280;11674;52.428;13.584;2022-08-19T03:28:33;100551.47;;;21.81;87.41
23016;BME280;11674;52.428;13.584;2022-08-19T03:31:09;100547.47;;;21.82;87.04
23016;BME280;11674;52.428;13.584;2022-08-19T03:33:41;100553.94;;;21.83;87.27
23016;BME280;11674;52.428;13.584;2022-08-19T03:36:17;100549.09;;;21.83;87.34
23016;BME280;11674;52.428;13.584;2022-08-19T03:38:54;100552.38;;;21.85;87.23
23016;BME280;11674;52.428;13.584;2022-08-19T03:41:29;100559.28;;;21.88;87.14
23016;BME280;11674;52.428;13.584;2022-08-19T03:44:02;100568.97;;;21.87;86.89
23016;BME280;11674;52.428;13.584;2022-08-19T03:46:35;100574.63;;;21.87;87.03
23016;BME280;11674;52.428;13.584;2022-08-19T03:49:06;100568.13;;;21.86;87.27
23016;BME280;11674;52.428;13.584;2022-08-19T03:51:38;100572.94;;;21.86;87.18
23016;BME280;11674;52.428;13.584;2022-08-19T03:54:12;100557.56;;;21.83;86.99
23016;BME280;11674;52.428;13.584;2022-08-19T03:56:46;100568.06;;;21.83;86.92
23016;BME280;11674;52.428;13.584;2022-08-19T03:59:28;100570.88;;;21.83;87.07
23016;BME280;11674;52.428;13.584;2022-08-19T04:02:05;100560.78;;;21.82;86.74
23016;BME280;11674;52.428;13.584;2022-08-19T04:04:38;100572.88;;;21.82;87.16
23016;BME280;11674;52.428;13.584;2022-08-19T04:07:12;100581.34;;;21.82;86.82
23016;BME280;11674;52.428;13.584;2022-08-19T04:09:44;100575.34;;;21.84;87.08
23016;BME280;11674;52.428;13.584;2022-08-19T04:12:20;100571.31;;;21.85;86.87
23016;BME280;11674;52.428;13.584;2022-08-19T04:14:52;100571.31;;;21.85;87.02
23016;BME280;11674;52.428;13.584;2022-08-19T04:17:24;100576.97;;;21.85;87.15
23016;BME280;11674;52.428;13.584;2022-08-19T04:19:56;100583.09;;;21.87;87.20
23016;BME280;11674;52.428;13.584;2022-08-19T04:22:28;100584.34;;;21.89;87.24
23016;BME280;11674;52.428;13.584;2022-08-19T04:25:00;100574.31;;;21.92;86.77
23016;BME280;11674;52.428;13.584;2022-08-19T04:27:32;100580.78;;;21.92;87.13
23016;BME280;11674;52.428;13.584;2022-08-19T04:30:05;100584.88;;;21.95;86.95
23016;BME280;11674;52.428;13.584;2022-08-19T04:32:36;100580.47;;;21.97;86.92
23016;BME280;11674;52.428;13.584;2022-08-19T04:35:08;100576.09;;;22.00;87.08
23016;BME280;11674;52.428;13.584;2022-08-19T04:37:40;100576.63;;;22.05;87.27
23016;BME280;11674;52.428;13.584;2022-08-19T04:40:12;100586.38;;;22.08;87.10
23016;BME280;11674;52.428;13.584;2022-08-19T04:42:44;100576.31;;;22.10;86.85
23016;BME280;11674;52.428;13.584;2022-08-19T04:45:16;100577.56;;;22.13;86.67
23016;BME280;11674;52.428;13.584;2022-08-19T04:47:49;100572.75;;;22.13;86.55
23016;BME280;11674;52.428;13.584;2022-08-19T04:50:20;100573.19;;;22.15;86.98
23016;BME280;11674;52.428;13.584;2022-08-19T04:52:52;100575.28;;;22.18;86.73
23016;BME280;11674;52.428;13.584;2022-08-19T04:55:24;100565.66;;;22.23;86.54
23016;BME280;11674;52.428;13.584;2022-08-19T04:57:56;100565.28;;;22.24;86.87
23016;BME280;11674;52.428;13.584;2022-08-19T05:00:28;100564.94;;;22.26;86.69
23016;BME280;11674;52.428;13.584;2022-08-19T05:03:00;100556.88;;;22.28;86.62
23016;BME280;11674;52.428;13.584;2022-08-19T05:05:32;100567.47;;;22.31;86.56
23016;BME280;11674;52.428;13.584;2022-08-19T05:08:04;100559.41;;;22.33;86.83
23016;BME280;11674;52.428;13.584;2022-08-19T05:10:39;100563.88;;;22.34;86.52
23016;BME280;11674;52.428;13.584;2022-08-19T05:13:11;100555.38;;;22.34;86.35
23016;BME280;11674;52.428;13.584;2022-08-19T05:15:44;100548.56;;;22.35;86.65
23016;BME280;11674;52.428;13.584;2022-08-19T05:18:10;100553.03;;;22.36;86.12
23016;BME280;11674;52.428;13.584;2022-08-19T05:20:41;100549.00;;;22.37;86.37
23016;BME280;11674;52.428;13.584;2022-08-19T05:23:13;100551.44;;;22.38;86.24
23016;BME280;11674;52.428;13.584;2022-08-19T05:25:39;100548.25;;;22.40;86.47
23016;BME280;11674;52.428;13.584;2022-08-19T05:28:11;100542.59;;;22.40;86.02
23016;BME280;11674;52.428;13.584;2022-08-19T05:30:44;100545.44;;;22.40;86.23
23016;BME280;11674;52.428;13.584;2022-08-19T05:33:16;100543.41;;;22.40;86.07
23016;BME280;11674;52.428;13.584;2022-08-19T05:35:48;100540.56;;;22.40;86.10
23016;BME280;11674;52.428;13.584;2022-08-19T05:38:20;100536.19;;;22.43;86.14
23016;BME280;11674;52.428;13.584;2022-08-19T05:40:52;100545.59;;;22.47;86.29
23016;BME280;11674;52.428;13.584;2022-08-19T05:43:24;100550.09;;;22.51;86.22
23016;BME280;11674;52.428;13.584;2022-08-19T05:45:56;100553.81;;;22.55;85.96
23016;BME280;11674;52.428;13.584;2022-08-19T05:48:28;100563.63;;;22.61;86.47
23016;BME280;11674;52.428;13.584;2022-08-19T05:51:07;100562.50;;;22.66;86.38
23016;BME280;11674;52.428;13.584;2022-08-19T05:53:38;100570.25;;;22.69;86.05
23016;BME280;11674;52.428;13.584;2022-08-19T05:56:13;100555.78;;;22.74;86.12
23016;BME280;11674;52.428;13.584;2022-08-19T05:58:45;100572.00;;;22.77;86.41
23016;BME280;11674;52.428;13.584;2022-08-19T06:01:18;100559.56;;;22.81;85.96
23016;BME280;11674;52.428;13.584;2022-08-19T06:03:51;100564.06;;;22.86;85.91
23016;BME280;11674;52.428;13.584;2022-08-19T06:06:22;100578.28;;;22.89;85.76
23016;BME280;11674;52.428;13.584;2022-08-19T06:08:54;100579.91;;;22.90;86.12
23016;BME280;11674;52.428;13.584;2022-08-19T06:11:37;100584.09;;;22.96;86.15
23016;BME280;11674;52.428;13.584;2022-08-19T06:14:14;100585.41;;;23.02;85.88
23016;BME280;11674;52.428;13.584;2022-08-19T06:16:46;100585.03;;;23.04;85.71
23016;BME280;11674;52.428;13.584;2022-08-19T06:19:20;100582.19;;;23.04;86.15
23016;BME280;11674;52.428;13.584;2022-08-19T06:21:53;100574.56;;;23.08;86.41
23016;BME280;11674;52.428;13.584;2022-08-19T06:24:26;100578.72;;;23.14;86.11
23016;BME280;11674;52.428;13.584;2022-08-19T06:26:58;100576.03;;;23.21;86.10
23016;BME280;11674;52.428;13.584;2022-08-19T06:29:31;100572.13;;;23.29;86.19
23016;BME280;11674;52.428;13.584;2022-08-19T06:32:03;100567.75;;;23.35;86.31
23016;BME280;11674;52.428;13.584;2022-08-19T06:34:31;100568.31;;;23.44;86.38
23016;BME280;11674;52.428;13.584;2022-08-19T06:37:03;100563.19;;;23.53;86.18
23016;BME280;11674;52.428;13.584;2022-08-19T06:39:38;100571.78;;;23.60;85.94
23016;BME280;11674;52.428;13.584;2022-08-19T06:42:11;100573.41;;;23.61;85.85
23016;BME280;11674;52.428;13.584;2022-08-19T06:44:46;100584.00;;;23.64;85.89
23016;BME280;11674;52.428;13.584;2022-08-19T06:47:20;100582.41;;;23.66;85.66
23016;BME280;11674;52.428;13.584;2022-08-19T06:49:54;100593.38;;;23.68;85.54
23016;BME280;11674;52.428;13.584;2022-08-19T06:52:26;100599.47;;;23.70;85.80
23016;BME280;11674;52.428;13.584;2022-08-19T06:54:52;100605.19;;;23.73;85.37
23016;BME280;11674;52.428;13.584;2022-08-19T06:57:24;100614.88;;;23.72;85.26
23016;BME280;11674;52.428;13.584;2022-08-19T06:59:55;100614.00;;;23.68;85.32
23016;BME280;11674;52.428;13.584;2022-08-19T07:02:28;100615.59;;;23.66;85.21
23016;BME280;11674;52.428;13.584;2022-08-19T07:04:59;100621.63;;;23.64;85.45
23016;BME280;11674;52.428;13.584;2022-08-19T07:07:31;100613.13;;;23.64;85.32
23016;BME280;11674;52.428;13.584;2022-08-19T07:10:04;100599.78;;;23.65;85.55
23016;BME280;11674;52.428;13.584;2022-08-19T07:12:36;100604.25;;;23.66;85.47
23016;BME280;11674;52.428;13.584;2022-08-19T07:15:09;100603.06;;;23.67;85.46
23016;BME280;11674;52.428;13.584;2022-08-19T07:17:40;100597.00;;;23.68;85.47
23016;BME280;11674;52.428;13.584;2022-08-19T07:20:12;100599.09;;;23.71;85.49
23016;BME280;11674;52.428;13.584;2022-08-19T07:22:44;100603.94;;;23.71;85.51
23016;BME280;11674;52.428;13.584;2022-08-19T07:25:16;100603.97;;;23.74;85.49
23016;BME280;11674;52.428;13.584;2022-08-19T07:27:49;100606.09;;;23.81;85.67
23016;BME280;11674;52.428;13.584;2022-08-19T07:30:20;100616.28;;;23.85;85.53
23016;BME280;11674;52.428;13.584;2022-08-19T07:32:52;100622.84;;;23.89;85.51
23016;BME280;11674;52.428;13.584;2022-08-19T07:35:24;100630.66;;;23.96;85.44
23016;BME280;11674;52.428;13.584;2022-08-19T07:37:56;100640.84;;;24.00;85.38
23016;BME280;11674;52.428;13.584;2022-08-19T07:40:28;100633.53;;;23.99;85.58
23016;BME280;11674;52.428;13.584;2022-08-19T07:43:00;100641.25;;;24.02;85.30
23016;BME280;11674;52.428;13.584;2022-08-19T07:45:32;100637.28;;;24.07;85.59
23016;BME280;11674;52.428;13.584;2022-08-19T07:48:04;100639.78;;;24.12;85.56
23016;BME280;11674;52.428;13.584;2022-08-19T07:50:36;100648.72;;;24.14;85.40
23016;BME280;11674;52.428;13.584;2022-08-19T07:53:08;100643.09;;;24.17;85.29
23016;BME280;11674;52.428;13.584;2022-08-19T07:55:40;100637.91;;;24.23;85.58
23016;BME280;11674;52.428;13.584;2022-08-19T07:58:15;100638.00;;;24.30;85.08
23016;BME280;11674;52.428;13.584;2022-08-19T08:00:50;100634.78;;;24.31;85.03
23016;BME280;11674;52.428;13.584;2022-08-19T08:03:22;100647.00;;;24.35;85.21
23016;BME280;11674;52.428;13.584;2022-08-19T08:05:54;100641.38;;;24.39;85.32
23016;BME280;11674;52.428;13.584;2022-08-19T08:08:20;100647.94;;;24.46;85.71
23016;BME280;11674;52.428;13.584;2022-08-19T08:10:51;100654.13;;;24.55;85.35
23016;BME280;11674;52.428;13.584;2022-08-19T08:13:24;100658.75;;;24.67;85.42
23016;BME280;11674;52.428;13.584;2022-08-19T08:15:56;100662.53;;;24.78;85.38
23016;BME280;11674;52.428;13.584;2022-08-19T08:18:28;100674.41;;;24.87;84.99
23016;BME280;11674;52.428;13.584;2022-08-19T08:21:00;100667.19;;;24.96;85.38
23016;BME280;11674;52.428;13.584;2022-08-19T08:23:32;100661.19;;;25.05;84.88
23016;BME280;11674;52.428;13.584;2022-08-19T08:26:04;100669.00;;;25.15;85.08
23016;BME280;11674;52.428;13.584;2022-08-19T08:28:36;100651.66;;;25.23;84.84
23016;BME280;11674;52.428;13.584;2022-08-19T08:31:08;100660.66;;;25.25;84.61
23016;BME280;11674;52.428;13.584;2022-08-19T08:33:40;100660.69;;;25.29;84.53
23016;BME280;11674;52.428;13.584;2022-08-19T08:36:13;100659.47;;;25.30;84.56
23016;BME280;11674;52.428;13.584;2022-08-19T08:38:46;100662.31;;;25.33;84.23
23016;BME280;11674;52.428;13.584;2022-08-19T08:41:30;100664.75;;;25.31;84.16
23016;BME280;11674;52.428;13.584;2022-08-19T08:44:03;100667.59;;;25.31;84.36
23016;BME280;11674;52.428;13.584;2022-08-19T08:46:47;100665.59;;;25.35;84.14
23016;BME280;11674;52.428;13.584;2022-08-19T08:49:24;100661.19;;;25.41;84.40
23016;BME280;11674;52.428;13.584;2022-08-19T08:52:09;100665.31;;;25.47;84.33
23016;BME280;11674;52.428;13.584;2022-08-19T08:54:45;100666.09;;;25.48;83.84
23016;BME280;11674;52.428;13.584;2022-08-19T08:57:24;100669.81;;;25.52;84.01
23016;BME280;11674;52.428;13.584;2022-08-19T09:00:02;100666.19;;;25.55;84.03
23016;BME280;11674;52.428;13.584;2022-08-19T09:02:35;100674.78;;;25.65;84.50
23016;BME280;11674;52.428;13.584;2022-08-19T09:05:09;100667.53;;;25.75;84.21
23016;BME280;11674;52.428;13.584;2022-08-19T09:08:05;100676.16;;;25.85;84.20
23016;BME280;11674;52.428;13.584;2022-08-19T09:10:49;100675.47;;;25.99;83.83
23016;BME280;11674;52.428;13.584;2022-08-19T09:16:07;100676.31;;;26.03;83.48
23016;BME280;11674;52.428;13.584;2022-08-19T09:18:47;100676.31;;;26.03;83.40
23016;BME280;11674;52.428;13.584;2022-08-19T09:21:23;100667.34;;;26.01;82.98
23016;BME280;11674;52.428;13.584;2022-08-19T09:23:55;100669.78;;;25.99;83.57
23016;BME280;11674;52.428;13.584;2022-08-19T09:26:27;100666.56;;;26.04;83.58
23016;BME280;11674;52.428;13.584;2022-08-19T09:29:00;100669.44;;;26.11;83.62
23016;BME280;11674;52.428;13.584;2022-08-19T09:31:32;100669.84;;;26.13;83.63
23016;BME280;11674;52.428;13.584;2022-08-19T09:34:03;100664.97;;;26.10;83.26
23016;BME280;11674;52.428;13.584;2022-08-19T09:36:36;100677.13;;;26.07;83.52
23016;BME280;11674;52.428;13.584;2022-08-19T09:39:07;100673.88;;;26.01;83.24
23016;BME280;11674;52.428;13.584;2022-08-19T09:41:39;100674.97;;;25.90;82.94
23016;BME280;11674;52.428;13.584;2022-08-19T09:44:12;100672.44;;;25.78;83.37
23016;BME280;11674;52.428;13.584;2022-08-19T09:46:44;100674.81;;;25.69;83.62
23016;BME280;11674;52.428;13.584;2022-08-19T09:49:18;100654.47;;;25.63;83.78
23016;BME280;11674;52.428;13.584;2022-08-19T09:51:51;100655.66;;;25.62;83.92
23016;BME280;11674;52.428;13.584;2022-08-19T09:54:26;100648.38;;;25.65;83.95
23016;BME280;11674;52.428;13.584;2022-08-19T09:56:58;100643.91;;;25.64;83.82
23016;BME280;11674;52.428;13.584;2022-08-19T09:59:30;100647.97;;;25.63;83.80
23016;BME280;11674;52.428;13.584;2022-08-19T10:02:02;100636.19;;;25.61;83.94
23016;BME280;11674;52.428;13.584;2022-08-19T10:04:34;100634.16;;;25.65;84.11
23016;BME280;11674;52.428;13.584;2022-08-19T10:07:06;100641.13;;;25.71;84.27
23016;BME280;11674;52.428;13.584;2022-08-19T10:09:38;100646.44;;;25.76;84.19
23016;BME280;11674;52.428;13.584;2022-08-19T10:12:10;100648.88;;;25.81;84.39
23016;BME280;11674;52.428;13.584;2022-08-19T10:14:42;100657.88;;;25.83;84.07
23016;BME280;11674;52.428;13.584;2022-08-19T10:17:14;100666.41;;;25.83;83.91
23016;BME280;11674;52.428;13.584;2022-08-19T10:19:49;100659.91;;;25.86;84.11
23016;BME280;11674;52.428;13.584;2022-08-19T10:22:21;100657.94;;;25.93;83.81
23016;BME280;11674;52.428;13.584;2022-08-19T10:24:53;100656.34;;;25.96;83.78
23016;BME280;11674;52.428;13.584;2022-08-19T10:27:18;100651.47;;;25.96;83.70
23016;BME280;11674;52.428;13.584;2022-08-19T10:29:51;100651.88;;;25.95;84.03
23016;BME280;11674;52.428;13.584;2022-08-19T10:32:22;100647.00;;;25.95;83.83
23016;BME280;11674;52.428;13.584;2022-08-19T10:34:55;100650.66;;;25.96;83.82
23016;BME280;11674;52.428;13.584;2022-08-19T10:37:26;100644.16;;;25.95;83.77
23016;BME280;11674;52.428;13.584;2022-08-19T10:39:58;100641.75;;;26.01;83.53
23016;BME280;11674;52.428;13.584;2022-08-19T10:42:31;100644.66;;;26.08;83.67
23016;BME280;11674;52.428;13.584;2022-08-19T10:45:04;100623.53;;;26.09;83.51
23016;BME280;11674;52.428;13.584;2022-08-19T10:47:36;100640.22;;;26.17;83.38
23016;BME280;11674;52.428;13.584;2022-08-19T10:50:07;100653.69;;;26.24;83.57
23016;BME280;11674;52.428;13.584;2022-08-19T10:52:41;100643.97;;;26.32;83.35
23016;BME280;11674;52.428;13.584;2022-08-19T10:55:13;100651.28;;;26.33;82.91
23016;BME280;11674;52.428;13.584;2022-08-19T10:57:46;100650.44;;;26.29;82.80
23016;BME280;11674;52.428;13.584;2022-08-19T11:00:19;100652.41;;;26.18;82.49
23016;BME280;11674;52.428;13.584;2022-08-19T11:02:51;100660.50;;;26.09;82.49
23016;BME280;11674;52.428;13.584;2022-08-19T11:05:22;100666.50;;;25.97;82.65
23016;BME280;11674;52.428;13.584;2022-08-19T11:07:54;100667.66;;;25.89;82.93
23016;BME280;11674;52.428;13.584;2022-08-19T11:10:26;100659.88;;;25.82;82.75
23016;BME280;11674;52.428;13.584;2022-08-19T11:12:58;100661.44;;;25.73;82.65
23016;BME280;11674;52.428;13.584;2022-08-19T11:15:31;100670.69;;;25.63;82.47
23016;BME280;11674;52.428;13.584;2022-08-19T11:18:03;100666.22;;;25.58;83.54
23016;BME280;11674;52.428;13.584;2022-08-19T11:20:34;100669.47;;;25.64;84.05
23016;BME280;11674;52.428;13.584;2022-08-19T11:23:06;100669.97;;;25.73;84.52
23016;BME280;11674;52.428;13.584;2022-08-19T11:25:39;100667.97;;;25.77;84.02
23016;BME280;11674;52.428;13.584;2022-08-19T11:28:11;100660.59;;;25.69;83.79
23016;BME280;11674;52.428;13.584;2022-08-19T11:30:38;100663.78;;;25.64;83.88
23016;BME280;11674;52.428;13.584;2022-08-19T11:33:09;100666.63;;;25.60;84.19
23016;BME280;11674;52.428;13.584;2022-08-19T11:35:41;100665.75;;;25.56;84.13
23016;BME280;11674;52.428;13.584;2022-08-19T11:38:13;100664.97;;;25.56;84.32
23016;BME280;11674;52.428;13.584;2022-08-19T11:40:54;100669.03;;;25.55;84.45
23016;BME280;11674;52.428;13.584;2022-08-19T11:43:26;100674.28;;;25.53;84.72
23016;BME280;11674;52.428;13.584;2022-08-19T11:45:59;100684.41;;;25.54;84.53
23016;BME280;11674;52.428;13.584;2022-08-19T11:48:30;100681.59;;;25.54;84.33
23016;BME280;11674;52.428;13.584;2022-08-19T11:51:05;100687.72;;;25.56;84.31
23016;BME280;11674;52.428;13.584;2022-08-19T11:53:38;100688.13;;;25.58;84.85
23016;BME280;11674;52.428;13.584;2022-08-19T11:56:10;100697.91;;;25.64;84.89
23016;BME280;11674;52.428;13.584;2022-08-19T11:58:41;100706.06;;;25.69;84.83
23016;BME280;11674;52.428;13.584;2022-08-19T12:01:16;100700.41;;;25.72;84.51
23016;BME280;11674;52.428;13.584;2022-08-19T12:03:50;100694.72;;;25.72;84.27
23016;BME280;11674;52.428;13.584;2022-08-19T12:06:29;100704.88;;;25.70;84.50
23016;BME280;11674;52.428;13.584;2022-08-19T12:09:05;100704.44;;;25.68;84.33
23016;BME280;11674;52.428;13.584;2022-08-19T12:11:38;100699.97;;;25.67;84.40
23016;BME280;11674;52.428;13.584;2022-08-19T12:14:11;100707.31;;;25.71;84.51
23016;BME280;11674;52.428;13.584;2022-08-19T12:16:45;100704.06;;;25.69;84.21
23016;BME280;11674;52.428;13.584;2022-08-19T12:19:17;100710.53;;;25.66;84.27
23016;BME280;11674;52.428;13.584;2022-08-19T12:21:50;100714.97;;;25.64;84.38
23016;BME280;11674;52.428;13.584;2022-08-19T12:24:21;100714.97;;;25.64;84.64
23016;BME280;11674;52.428;13.584;2022-08-19T12:26:54;100721.47;;;25.64;84.86
23016;BME280;11674;52.428;13.584;2022-08-19T12:29:25;100718.63;;;25.64;84.65
23016;BME280;11674;52.428;13.584;2022-08-19T12:31:58;100710.91;;;25.65;84.45
23016;BME280;11674;52.428;13.584;2022-08-19T12:34:31;100717.03;;;25.67;84.68
23016;BME280;11674;52.428;13.584;2022-08-19T12:37:05;100715.06;;;25.71;84.46
23016;BME280;11674;52.428;13.584;2022-08-19T12:39:40;100717.53;;;25.76;84.77
23016;BME280;11674;52.428;13.584;2022-08-19T12:42:14;100721.63;;;25.82;84.78
23016;BME280;11674;52.428;13.584;2022-08-19T12:44:45;100715.16;;;25.88;84.88
23016;BME280;11674;52.428;13.584;2022-08-19T12:47:18;100713.22;;;25.96;84.74
23016;BME280;11674;52.428;13.584;2022-08-19T12:49:49;100709.22;;;26.00;84.36
23016;BME280;11674;52.428;13.584;2022-08-19T12:52:25;100706.38;;;26.04;84.34
23016;BME280;11674;52.428;13.584;2022-08-19T12:54:57;100714.56;;;26.09;84.34
23016;BME280;11674;52.428;13.584;2022-08-19T12:57:28;100713.34;;;26.13;84.43
23016;BME280;11674;52.428;13.584;2022-08-19T13:00:10;100721.50;;;26.15;84.05
23016;BME280;11674;52.428;13.584;2022-08-19T13:02:45;100711.28;;;26.07;83.78
23016;BME280;11674;52.428;13.584;2022-08-19T13:05:14;100720.63;;;26.07;84.22
23016;BME280;11674;52.428;13.584;2022-08-19T13:07:46;100721.13;;;26.16;84.48
23016;BME280;11674;52.428;13.584;2022-08-19T13:10:20;100720.31;;;26.23;84.21
23016;BME280;11674;52.428;13.584;2022-08-19T13:12:52;100726.09;;;26.33;84.45